Impacts METAR Board
IDs:

KFLL - Ft Lauderdale-Hollyw, FL, US

Updated at: 1700 UTC 23 Jul 2018
Potential Impact None Slight Moderate High
Time 23/05Z 23/06Z 23/07Z 23/08Z 23/09Z 23/10Z 23/11Z 23/12Z 23/13Z 23/14Z 23/15Z 23/16Z 23/17Z
Temp78 78 78 79 80 80 81 82 85 87 87 89 91
Dewpt77 77 77 77 78 79 79 80 80 80 79 78 77
Altim29.92 29.91 29.90 29.88 29.88 29.88 29.90 29.92 29.92 29.90 29.86 29.88 29.89
VIS10 10 10 10 10 10 10 10 10 10 10 10 10
CIG250 -- -- -- -- -- -- 250 250 250 250 30 250
CoverBKNSCTSCTCLRFEWFEWSCTOVCOVCOVCBKNBKNBKN
FltCatVFRVFRVFRVFRVFRVFRVFRVFRVFRVFRVFRMVFRVFR
WX--------------------------
WDir002001502102202000220210200230220
WSpd0 0 3 4 5 4 6 5 6 10 10 13 14
WGst-- -- -- -- -- -- -- -- -- -- -- 20 --
Raw hourly METARs
KFLL 230453Z 00000KT 10SM FEW030 BKN250 26/25 A2992 RMK AO2 SLP131 T02560250 403440244
KFLL 230553Z 00000KT 10SM FEW031 SCT250 26/25 A2991 RMK AO2 SLP127 60037 T02560250 10306 20244 58002
KFLL 230653Z 20003KT 10SM FEW032 SCT250 26/25 A2990 RMK AO2 SLP124 T02560250
KFLL 230753Z 15004KT 10SM CLR 26/25 A2988 RMK AO2 SLP117 T02610250
KFLL 230853Z 21005KT 10SM FEW031 27/26 A2988 RMK AO2 SLP116 T02670256 56011
KFLL 230953Z 22004KT 10SM FEW250 27/26 A2988 RMK AO2 SLP117 T02670261
KFLL 231053Z 20006KT 10SM FEW024 FEW070 SCT250 27/26 A2990 RMK AO2 SLP126 T02720261
KFLL 231153Z VRB05KT 10SM FEW028 FEW080 OVC250 28/27 A2992 RMK AO2 SLP130 70069 T02780267 10278 20250 53014
KFLL 231253Z 22006KT 10SM FEW028 OVC250 29/27 A2992 RMK AO2 SLP132 T02940267
KFLL 231353Z 21010KT 10SM FEW025 FEW130 OVC250 31/27 A2990 RMK AO2 SLP126 TCU DSNT SW T03060267
KFLL 231453Z 20010KT 10SM FEW025 FEW150 BKN250 31/26 A2986 RMK AO2 SLP112 T03060261 58017
KFLL 231553Z 23013G20KT 10SM BKN030 BKN150 BKN250 32/26 A2988 RMK AO2 SLP119 T03170256
KFLL 231653Z 22014KT 10SM SCT030 SCT150 BKN250 33/25 A2989 RMK AO2 SLP119 T03280250



Page loaded:  17:09 UTC  |   10:09 AM Pacific  |   11:09 AM Mountain  |   12:09 PM Central  |   01:09 PM Eastern

 

ADVISORIES

FORECASTS

FORECASTS

OBSERVATIONS

USER TOOLS

ABOUT US